Terminal Aerodrome Forecast
Issued by NWS Spokane, WA

Home | Current Version | Previous Version | Text Only | Print | Product List | Glossary On
Versions: 1 2 3 4 5 6 7 8 9 10 11 12 13 14 15 16 17 18 19 20
000
FTUS46 KOTX 240146 AAA
TAFLWS
TAF AMD
KLWS 240146Z 2402/2424 34008KT P6SM SCT040
     FM240800 15004KT 6SM BCFG SCT015
     FM242100 12006KT P6SM BKN080 OVC150=

USA.gov is the U.S. government's official web portal to all federal, state and local government web resources and services.